createdAt,value
2022-10-23T00:01:39.436Z,10.65
2022-10-23T00:04:27.567Z,15.18
2022-10-23T00:06:54.395Z,10.88
2022-10-23T00:09:24.505Z,13.40
2022-10-23T00:11:52.899Z,14.23
2022-10-23T00:14:23.574Z,10.38
2022-10-23T00:16:50.392Z,14.68
2022-10-23T00:19:17.281Z,12.48
2022-10-23T00:21:44.171Z,15.52
2022-10-23T00:24:11.155Z,15.30
2022-10-23T00:26:40.471Z,10.65
2022-10-23T00:29:09.345Z,11.07
2022-10-23T00:31:36.955Z,9.50
2022-10-23T00:34:07.903Z,11.30
2022-10-23T00:36:35.668Z,10.80
2022-10-23T00:39:02.903Z,12.07
2022-10-23T00:41:32.162Z,11.15
2022-10-23T00:44:10.512Z,9.00
2022-10-23T00:46:40.055Z,11.48
2022-10-23T00:49:08.103Z,9.07
2022-10-23T00:52:07.772Z,11.68
2022-10-23T00:54:39.650Z,11.43
2022-10-23T00:57:12.736Z,15.45
2022-10-23T00:59:40.518Z,15.18
2022-10-23T01:02:08.039Z,12.60
2022-10-23T01:04:36.267Z,15.07
2022-10-23T01:07:26.887Z,18.30
2022-10-23T01:10:39.808Z,17.45
2022-10-23T01:13:29.607Z,13.75
2022-10-23T01:16:31.016Z,13.23
2022-10-23T01:19:17.313Z,11.15
2022-10-23T01:25:06.381Z,11.25
2022-10-23T01:27:55.465Z,10.43
2022-10-23T01:30:22.608Z,9.95
2022-10-23T01:33:08.399Z,10.65
2022-10-23T01:35:52.347Z,14.55
2022-10-23T01:38:35.296Z,10.50
2022-10-23T01:41:19.910Z,10.23
2022-10-23T01:44:04.171Z,10.00
2022-10-23T01:46:37.502Z,13.48
2022-10-23T01:49:11.543Z,12.75
2022-10-23T01:51:43.195Z,10.80
2022-10-23T01:54:13.440Z,11.65
2022-10-23T01:56:48.336Z,11.40
2022-10-23T01:59:23.322Z,10.40
2022-10-23T02:01:56.219Z,13.95
2022-10-23T02:04:35.848Z,13.00
2022-10-23T02:07:02.991Z,11.93
2022-10-23T02:09:30.383Z,11.52
2022-10-23T02:12:10.567Z,11.77
2022-10-23T02:15:00.690Z,12.07
2022-10-23T02:18:07.264Z,14.77
2022-10-23T02:23:31.681Z,12.43
2022-10-23T02:26:15.538Z,15.05
2022-10-23T02:29:10.279Z,11.32
2022-10-23T02:31:40.633Z,12.32
2022-10-23T02:34:07.420Z,13.10
2022-10-23T02:36:34.204Z,12.27
2022-10-23T02:39:01.665Z,14.02
2022-10-23T02:42:00.131Z,10.82
2022-10-23T02:44:45.844Z,9.40
2022-10-23T02:47:28.779Z,11.48
2022-10-23T02:50:21.370Z,8.38
2022-10-23T02:53:20.974Z,9.75
2022-10-23T02:56:14.794Z,8.43
2022-10-23T02:59:21.283Z,11.82
2022-10-23T03:01:55.719Z,9.63
2022-10-23T03:04:27.931Z,10.40
2022-10-23T03:06:56.272Z,11.55
2022-10-23T03:09:23.068Z,11.48
2022-10-23T03:11:49.850Z,11.48
2022-10-23T03:14:16.597Z,10.93
2022-10-23T03:16:45.080Z,12.10
2022-10-23T03:21:43.859Z,10.07
2022-10-23T03:24:10.625Z,12.75
2022-10-23T03:26:41.720Z,10.55
2022-10-23T03:29:08.471Z,11.25
2022-10-23T03:31:41.029Z,12.05
2022-10-23T03:34:11.053Z,10.35
2022-10-23T03:36:40.361Z,12.95
2022-10-23T03:39:08.467Z,9.68
2022-10-23T03:41:35.258Z,8.45
2022-10-23T03:44:02.161Z,8.85
2022-10-23T03:46:29.028Z,11.50
2022-10-23T03:48:58.133Z,12.20
2022-10-23T03:51:25.515Z,11.70
2022-10-23T03:53:52.241Z,15.38
2022-10-23T03:56:18.990Z,9.88
2022-10-23T03:58:45.731Z,15.73
2022-10-23T04:01:13.987Z,10.80
2022-10-23T04:03:40.894Z,12.73
2022-10-23T04:06:08.069Z,10.00
2022-10-23T04:08:34.880Z,9.30
2022-10-23T04:11:03.365Z,10.68
2022-10-23T04:13:39.836Z,10.80
2022-10-23T04:16:06.851Z,10.23
2022-10-23T04:18:33.600Z,10.63
2022-10-23T04:21:00.397Z,9.95
2022-10-23T04:23:27.167Z,11.75
2022-10-23T04:25:57.886Z,11.85
2022-10-23T04:28:26.624Z,9.65
2022-10-23T04:30:53.531Z,11.20
2022-10-23T04:33:20.569Z,12.23
2022-10-23T04:35:50.041Z,9.85
2022-10-23T04:38:16.803Z,10.48
2022-10-23T04:40:43.998Z,11.85
2022-10-23T04:43:10.816Z,9.18
2022-10-23T04:45:39.780Z,10.20
2022-10-23T04:48:06.700Z,10.68
2022-10-23T04:51:05.625Z,8.90
2022-10-23T04:53:50.336Z,11.77
2022-10-23T04:56:43.565Z,10.25
2022-10-23T04:59:16.676Z,10.93
2022-10-23T05:01:43.720Z,11.70
2022-10-23T05:04:10.551Z,8.60
2022-10-23T05:06:57.291Z,8.18
2022-10-23T05:09:42.952Z,7.80
2022-10-23T05:12:48.129Z,9.45
2022-10-23T05:15:14.922Z,10.35
2022-10-23T05:17:47.972Z,9.60
2022-10-23T05:20:21.663Z,9.93
2022-10-23T05:22:52.031Z,10.23
2022-10-23T05:25:23.917Z,10.80
2022-10-23T05:27:58.568Z,9.38
2022-10-23T05:30:26.051Z,10.95
2022-10-23T05:32:54.549Z,9.05
2022-10-23T05:35:24.765Z,11.02
2022-10-23T05:37:55.387Z,9.90
2022-10-23T05:40:24.944Z,8.85
2022-10-23T05:42:58.607Z,9.93
2022-10-23T05:45:40.565Z,9.98
2022-10-23T05:48:35.449Z,9.35
2022-10-23T05:51:23.026Z,7.07
2022-10-23T05:53:55.674Z,10.80
2022-10-23T05:56:44.116Z,8.00
2022-10-23T05:59:22.886Z,8.88
2022-10-23T06:01:59.833Z,9.57
2022-10-23T06:04:36.667Z,11.15
2022-10-23T06:07:31.186Z,10.82
2022-10-23T06:10:01.903Z,7.63
2022-10-23T06:12:30.891Z,10.02
2022-10-23T06:14:58.721Z,9.20
2022-10-23T06:17:36.631Z,7.85
2022-10-23T06:20:04.620Z,10.75
2022-10-23T06:22:36.394Z,9.30
2022-10-23T06:25:17.263Z,9.45
2022-10-23T06:27:44.147Z,8.43
2022-10-23T06:30:12.539Z,7.72
2022-10-23T06:32:39.932Z,10.65
2022-10-23T06:35:12.311Z,9.82
2022-10-23T06:37:39.518Z,10.27
2022-10-23T06:40:11.347Z,6.10
2022-10-23T06:42:57.504Z,7.28
2022-10-23T06:45:40.287Z,8.40
2022-10-23T06:48:12.930Z,9.80
2022-10-23T06:50:55.903Z,7.05
2022-10-23T06:53:33.837Z,7.63
2022-10-23T06:56:08.657Z,7.15
2022-10-23T06:58:39.481Z,10.05
2022-10-23T07:01:16.593Z,6.47
2022-10-23T07:03:44.973Z,6.60
2022-10-23T07:06:12.204Z,8.02
2022-10-23T07:08:39.569Z,7.35
2022-10-23T07:11:25.716Z,7.07
2022-10-23T07:13:53.982Z,7.90
2022-10-23T07:16:23.520Z,6.93
2022-10-23T07:19:01.106Z,9.10
2022-10-23T07:21:32.519Z,7.38
2022-10-23T07:24:31.798Z,9.15
2022-10-23T07:27:00.904Z,7.15
2022-10-23T07:29:29.229Z,7.43
2022-10-23T07:31:57.927Z,6.53
2022-10-23T07:34:43.488Z,8.98
2022-10-23T07:37:19.026Z,6.88
2022-10-23T07:39:45.958Z,9.75
2022-10-23T07:42:13.538Z,9.13
2022-10-23T07:44:41.465Z,7.65
2022-10-23T07:47:08.461Z,6.35
2022-10-23T07:49:35.652Z,6.70
2022-10-23T07:52:05.610Z,8.45
2022-10-23T07:54:52.568Z,7.72
2022-10-23T07:57:20.705Z,7.53
2022-10-23T07:59:54.860Z,9.27
2022-10-23T08:02:23.537Z,8.20
2022-10-23T08:04:50.856Z,13.38
2022-10-23T08:07:24.984Z,7.72
2022-10-23T08:09:54.950Z,5.97
2022-10-23T08:12:22.228Z,7.50
2022-10-23T08:14:49.275Z,6.85
2022-10-23T08:17:16.532Z,5.70
2022-10-23T08:20:07.763Z,9.60
2022-10-23T08:22:40.373Z,8.50
2022-10-23T08:25:08.515Z,5.68
2022-10-23T08:27:36.079Z,7.35
2022-10-23T08:30:04.460Z,7.45
2022-10-23T08:32:31.680Z,7.80
2022-10-23T08:34:59.929Z,9.27
2022-10-23T08:37:29.907Z,5.78
2022-10-23T08:39:56.688Z,7.72
2022-10-23T08:42:38.319Z,9.50
2022-10-23T08:45:11.886Z,8.80
2022-10-23T08:47:47.010Z,7.05
2022-10-23T08:50:43.907Z,4.78
2022-10-23T08:53:40.092Z,6.88
2022-10-23T08:56:31.344Z,6.32
2022-10-23T08:59:20.110Z,7.30
2022-10-23T09:01:52.338Z,7.00
2022-10-23T09:04:19.417Z,6.18
2022-10-23T09:07:04.218Z,5.07
2022-10-23T09:10:05.635Z,6.57
2022-10-23T09:12:32.643Z,6.30
2022-10-23T09:15:35.530Z,5.78
2022-10-23T09:18:17.279Z,5.93
2022-10-23T09:20:46.910Z,5.50
2022-10-23T09:23:24.775Z,5.28
2022-10-23T09:25:56.857Z,6.50
2022-10-23T09:28:32.547Z,7.10
2022-10-23T09:31:12.899Z,7.68
2022-10-23T09:33:40.793Z,10.15
2022-10-23T09:36:19.780Z,5.43
2022-10-23T09:38:46.454Z,6.78
2022-10-23T09:41:35.196Z,7.03
2022-10-23T09:44:07.713Z,3.85
2022-10-23T09:46:53.875Z,7.78
2022-10-23T09:49:33.643Z,5.72
2022-10-23T09:52:12.917Z,4.63
2022-10-23T09:54:47.711Z,4.72
2022-10-23T09:57:24.312Z,3.65
2022-10-23T09:59:59.470Z,3.20
2022-10-23T10:02:36.857Z,6.03
2022-10-23T10:05:38.347Z,8.60
2022-10-23T10:08:44.138Z,4.97
2022-10-23T10:11:25.913Z,6.95
2022-10-23T10:14:08.850Z,4.32
2022-10-23T10:16:47.309Z,4.40
2022-10-23T10:19:36.541Z,7.93
2022-10-23T10:22:30.687Z,3.83
2022-10-23T10:25:21.440Z,5.60
2022-10-23T10:28:36.632Z,4.70
2022-10-23T10:31:55.626Z,6.45
2022-10-23T10:34:37.105Z,4.20
2022-10-23T10:37:43.930Z,6.38
2022-10-23T10:41:10.579Z,5.07
2022-10-23T10:44:15.195Z,4.43
2022-10-23T10:46:50.492Z,3.97
2022-10-23T10:49:33.794Z,7.10
2022-10-23T10:52:45.428Z,4.35
2022-10-23T10:55:28.240Z,4.22
2022-10-23T10:58:35.340Z,3.83
2022-10-23T11:01:14.366Z,5.78
2022-10-23T11:04:17.836Z,2.42
2022-10-23T11:06:50.908Z,5.07
2022-10-23T11:09:27.860Z,3.58
2022-10-23T11:11:55.541Z,5.55
2022-10-23T11:14:30.815Z,5.00
2022-10-23T11:17:18.415Z,4.43
2022-10-23T11:20:25.794Z,3.67
2022-10-23T11:23:17.316Z,4.95
2022-10-23T11:26:20.051Z,5.55
2022-10-23T11:29:20.826Z,7.30
2022-10-23T11:32:25.465Z,7.47
2022-10-23T11:35:14.238Z,6.43
2022-10-23T11:37:41.731Z,7.20
2022-10-23T11:40:08.600Z,10.07
2022-10-23T11:42:41.560Z,7.25
2022-10-23T11:45:40.234Z,7.55
2022-10-23T11:48:34.854Z,5.85
2022-10-23T11:51:05.238Z,6.07
2022-10-23T11:53:32.202Z,6.13
2022-10-23T11:55:59.009Z,3.83
2022-10-23T11:58:40.267Z,5.82
2022-10-23T12:01:44.086Z,6.63
2022-10-23T12:04:13.603Z,7.40
2022-10-23T12:07:01.527Z,5.53
2022-10-23T12:09:41.124Z,6.32
2022-10-23T12:12:07.798Z,4.22
2022-10-23T12:14:46.686Z,3.67
2022-10-23T12:17:22.487Z,6.05
2022-10-23T12:20:10.619Z,5.03
2022-10-23T12:23:14.572Z,5.30
2022-10-23T12:26:22.235Z,4.75
2022-10-23T12:29:10.726Z,4.65
2022-10-23T12:31:51.848Z,6.70
2022-10-23T12:35:24.499Z,4.93
2022-10-23T12:38:04.925Z,5.88
2022-10-23T12:40:32.369Z,4.10
2022-10-23T12:43:00.968Z,8.07
2022-10-23T12:45:39.902Z,6.90
2022-10-23T12:48:06.646Z,9.85
2022-10-23T12:50:34.488Z,5.63
2022-10-23T12:53:08.217Z,4.35
2022-10-23T12:58:33.954Z,7.93
2022-10-23T13:01:06.928Z,7.90
2022-10-23T13:03:35.196Z,4.43
2022-10-23T13:06:03.636Z,7.70
2022-10-23T13:08:43.099Z,4.45
2022-10-23T13:11:31.339Z,8.02
2022-10-23T13:14:02.295Z,3.97
2022-10-23T13:16:29.047Z,7.15
2022-10-23T13:18:55.791Z,4.03
2022-10-23T13:21:29.112Z,6.15
2022-10-23T13:23:57.073Z,6.63
2022-10-23T13:26:32.192Z,4.65
2022-10-23T13:29:03.789Z,4.82
2022-10-23T13:31:34.496Z,4.53
2022-10-23T13:34:01.211Z,5.57
2022-10-23T13:36:34.395Z,4.40
2022-10-23T13:39:09.226Z,6.18
2022-10-23T13:41:46.408Z,7.95
2022-10-23T13:44:20.791Z,6.05
2022-10-23T13:46:48.440Z,5.95
2022-10-23T13:49:16.178Z,4.90
2022-10-23T13:51:52.215Z,6.93
2022-10-23T13:56:59.823Z,6.57
2022-10-23T13:59:26.661Z,4.82
2022-10-23T14:01:53.560Z,6.57
2022-10-23T14:04:21.039Z,4.80
2022-10-23T14:06:47.883Z,6.20
2022-10-23T14:09:18.360Z,7.78
2022-10-23T14:11:45.570Z,5.78
2022-10-23T14:14:12.738Z,7.35
2022-10-23T14:16:39.534Z,6.07
2022-10-23T14:19:07.850Z,6.90
2022-10-23T14:21:34.589Z,4.32
2022-10-23T14:24:01.340Z,6.07
2022-10-23T14:26:30.125Z,4.97
2022-10-23T14:29:00.737Z,5.28
2022-10-23T14:31:31.294Z,4.07
2022-10-23T14:34:00.676Z,7.13
2022-10-23T14:36:38.456Z,8.85
2022-10-23T14:39:16.237Z,6.60
2022-10-23T14:41:43.058Z,7.55
2022-10-23T14:44:09.951Z,6.18
2022-10-23T14:46:38.151Z,4.18
2022-10-23T14:49:05.187Z,5.30
2022-10-23T14:51:32.332Z,6.20
2022-10-23T14:54:02.923Z,6.68
2022-10-23T14:56:33.890Z,8.73
2022-10-23T14:59:03.744Z,4.22
2022-10-23T15:01:43.678Z,5.85
2022-10-23T15:04:15.074Z,6.18
2022-10-23T15:06:42.479Z,4.78
2022-10-23T15:09:09.351Z,4.03
2022-10-23T15:11:36.243Z,5.60
2022-10-23T15:14:03.315Z,5.65
2022-10-23T15:16:30.222Z,6.47
2022-10-23T15:18:57.384Z,5.22
2022-10-23T15:21:24.653Z,5.82
2022-10-23T15:23:52.901Z,5.38
2022-10-23T15:26:22.971Z,6.45
2022-10-23T15:28:58.784Z,5.30
2022-10-23T15:31:37.804Z,4.30
2022-10-23T15:34:06.647Z,3.97
2022-10-23T15:36:33.829Z,5.90
2022-10-23T15:39:00.742Z,6.28
2022-10-23T15:41:31.349Z,5.70
2022-10-23T15:44:00.856Z,5.15
2022-10-23T15:46:27.696Z,6.43
2022-10-23T15:48:54.834Z,5.38
2022-10-23T15:51:21.887Z,7.13
2022-10-23T15:53:49.068Z,10.93
2022-10-23T15:56:15.968Z,7.97
2022-10-23T15:58:42.996Z,4.90
2022-10-23T16:01:10.030Z,5.80
2022-10-23T16:03:38.562Z,5.10
2022-10-23T16:06:11.971Z,5.57
2022-10-23T16:08:39.430Z,5.07
2022-10-23T16:11:21.986Z,10.07
2022-10-23T16:13:49.276Z,5.90
2022-10-23T16:16:17.515Z,5.05
2022-10-23T16:18:45.368Z,7.03
2022-10-23T16:21:22.951Z,6.40
2022-10-23T16:23:51.318Z,7.00
2022-10-23T16:26:19.857Z,12.02
2022-10-23T16:28:47.405Z,8.77
2022-10-23T16:31:20.496Z,5.88
2022-10-23T16:33:51.804Z,8.40
2022-10-23T16:36:20.052Z,6.82
2022-10-23T16:39:20.295Z,5.30
2022-10-23T16:42:06.164Z,7.18
2022-10-23T16:44:46.571Z,7.72
2022-10-23T16:47:13.336Z,7.95
2022-10-23T16:49:40.080Z,11.07
2022-10-23T16:52:06.815Z,5.35
2022-10-23T16:54:33.706Z,3.72
2022-10-23T16:57:00.421Z,10.73
2022-10-23T16:59:27.362Z,5.35
2022-10-23T17:01:54.370Z,6.65
2022-10-23T17:04:21.244Z,9.07
2022-10-23T17:06:47.959Z,6.50
2022-10-23T17:09:14.956Z,6.90
2022-10-23T17:11:44.675Z,6.68
2022-10-23T17:14:18.526Z,7.90
2022-10-23T17:16:51.903Z,6.35
2022-10-23T17:19:40.083Z,7.13
2022-10-23T17:22:10.668Z,5.97
2022-10-23T17:24:44.213Z,7.15
2022-10-23T17:27:13.259Z,9.30
2022-10-23T17:29:40.176Z,7.75
2022-10-23T17:32:07.188Z,10.57
2022-10-23T17:34:34.194Z,7.10
2022-10-23T17:37:00.964Z,12.20
2022-10-23T17:39:29.888Z,6.55
2022-10-23T17:41:57.186Z,5.18
2022-10-23T17:44:24.455Z,9.40
2022-10-23T17:46:55.616Z,6.10
2022-10-23T17:49:24.334Z,8.27
2022-10-23T17:51:55.698Z,6.65
2022-10-23T17:54:24.532Z,8.05
2022-10-23T17:56:51.514Z,7.07
2022-10-23T17:59:19.423Z,7.70
2022-10-23T18:01:47.843Z,4.72
2022-10-23T18:04:17.797Z,6.22
2022-10-23T18:06:49.807Z,6.70
2022-10-23T18:09:17.834Z,7.60
2022-10-23T18:11:48.865Z,5.32
2022-10-23T18:14:19.403Z,7.43
2022-10-23T18:16:46.556Z,6.68
2022-10-23T18:19:15.602Z,8.20
2022-10-23T18:21:42.389Z,6.32
2022-10-23T18:24:10.023Z,6.32
2022-10-23T18:26:38.996Z,8.50
2022-10-23T18:29:08.439Z,7.32
2022-10-23T18:31:37.412Z,6.40
2022-10-23T18:34:13.598Z,6.70
2022-10-23T18:36:40.837Z,6.32
2022-10-23T18:39:12.868Z,7.68
2022-10-23T18:41:43.288Z,6.63
2022-10-23T18:44:16.860Z,8.13
2022-10-23T18:46:45.172Z,7.60
2022-10-23T18:49:12.088Z,5.85
2022-10-23T18:51:39.454Z,7.88
2022-10-23T18:54:12.307Z,6.35
2022-10-23T18:56:39.782Z,5.15
2022-10-23T18:59:11.909Z,7.90
2022-10-23T19:01:39.084Z,8.75
2022-10-23T19:04:06.685Z,9.77
2022-10-23T19:06:36.906Z,7.13
2022-10-23T19:09:08.274Z,6.85
2022-10-23T19:11:35.644Z,6.38
2022-10-23T19:14:02.512Z,5.43
2022-10-23T19:17:02.806Z,7.28
2022-10-23T19:19:36.186Z,7.80
2022-10-23T19:22:04.298Z,9.73
2022-10-23T19:24:41.099Z,5.88
2022-10-23T19:27:08.778Z,7.25
2022-10-23T19:29:42.571Z,8.38
2022-10-23T19:32:09.739Z,6.35
2022-10-23T19:34:36.793Z,6.60
2022-10-23T19:37:03.682Z,9.73
2022-10-23T19:39:30.526Z,9.00
2022-10-23T19:41:58.409Z,4.70
2022-10-23T19:44:25.355Z,5.35
2022-10-23T19:46:52.335Z,4.90
2022-10-23T19:49:19.436Z,6.57
2022-10-23T19:51:50.929Z,4.25
2022-10-23T19:54:20.296Z,3.95
2022-10-23T19:56:47.612Z,5.82
2022-10-23T19:59:15.568Z,5.00
2022-10-23T20:01:45.157Z,5.22
2022-10-23T20:04:17.180Z,8.93
2022-10-23T20:06:43.925Z,7.05
2022-10-23T20:09:10.749Z,7.57
2022-10-23T20:11:39.852Z,4.28
2022-10-23T20:14:07.259Z,5.38
2022-10-23T20:16:38.189Z,5.25
2022-10-23T20:19:09.420Z,8.27
2022-10-23T20:21:38.956Z,6.57
2022-10-23T20:24:06.931Z,7.35
2022-10-23T20:26:33.794Z,5.20
2022-10-23T20:29:00.616Z,9.40
2022-10-23T20:31:28.294Z,8.68
2022-10-23T20:33:56.364Z,13.23
2022-10-23T20:36:33.442Z,9.50
2022-10-23T20:39:08.292Z,10.35
2022-10-23T20:41:37.110Z,17.40
2022-10-23T20:44:11.227Z,7.15
2022-10-23T20:46:38.732Z,8.70
2022-10-23T20:49:05.644Z,8.18
2022-10-23T20:51:32.871Z,7.85
2022-10-23T20:53:59.611Z,5.97
2022-10-23T20:56:34.432Z,4.78
2022-10-23T20:59:21.476Z,5.18
2022-10-23T21:01:52.882Z,4.53
2022-10-23T21:04:25.124Z,4.07
2022-10-23T21:07:10.789Z,4.38
2022-10-23T21:09:39.811Z,6.70
2022-10-23T21:12:07.018Z,2.90
2022-10-23T21:14:34.790Z,4.95
2022-10-23T21:17:01.795Z,2.63
2022-10-23T21:19:28.590Z,2.20
2022-10-23T21:21:55.775Z,2.00
2022-10-23T21:24:23.915Z,2.65
2022-10-23T21:26:50.661Z,3.42
2022-10-23T21:29:19.118Z,5.68
2022-10-23T21:31:57.956Z,1.65
2022-10-23T21:34:26.831Z,1.73
2022-10-23T21:37:12.308Z,3.22
2022-10-23T21:39:40.756Z,2.83
2022-10-23T21:42:07.753Z,2.13
2022-10-23T21:44:34.720Z,3.33
2022-10-23T21:47:01.512Z,3.13
2022-10-23T21:49:28.359Z,4.28
2022-10-23T21:51:55.301Z,2.10
2022-10-23T21:54:22.573Z,3.38
2022-10-23T21:56:53.863Z,2.40
2022-10-23T21:59:25.237Z,4.85
2022-10-23T22:01:53.601Z,4.45
2022-10-23T22:04:20.578Z,5.45
2022-10-23T22:06:49.640Z,4.43
2022-10-23T22:09:19.914Z,4.72
2022-10-23T22:11:49.670Z,5.03
2022-10-23T22:14:16.457Z,5.05
2022-10-23T22:16:43.234Z,19.25
2022-10-23T22:19:15.763Z,7.72
2022-10-23T22:21:42.844Z,8.45
2022-10-23T22:24:10.250Z,13.85
2022-10-23T22:26:41.907Z,3.20
2022-10-23T22:29:12.957Z,6.47
2022-10-23T22:31:44.180Z,6.03
2022-10-23T22:34:27.259Z,5.18
2022-10-23T22:37:09.627Z,4.97
2022-10-23T22:39:36.930Z,4.45
2022-10-23T22:42:03.885Z,6.68
2022-10-23T22:44:30.669Z,3.72
2022-10-23T22:46:57.452Z,4.30
2022-10-23T22:49:24.181Z,4.88
2022-10-23T22:51:50.928Z,5.43
2022-10-23T22:54:17.653Z,3.25
2022-10-23T22:56:44.473Z,6.35
2022-10-23T22:59:11.219Z,7.88
2022-10-23T23:01:47.368Z,4.15
2022-10-23T23:04:37.928Z,4.30
2022-10-23T23:07:10.336Z,5.25
2022-10-23T23:09:43.894Z,3.45
2022-10-23T23:12:13.415Z,4.18
2022-10-23T23:14:41.186Z,6.68
2022-10-23T23:17:10.005Z,4.63
2022-10-23T23:19:37.451Z,3.17
2022-10-23T23:22:04.854Z,5.57
2022-10-23T23:24:32.046Z,11.90
2022-10-23T23:26:58.827Z,7.22
2022-10-23T23:29:25.789Z,7.88
2022-10-23T23:31:52.661Z,5.60
2022-10-23T23:34:19.403Z,7.25
2022-10-23T23:36:46.146Z,3.20
2022-10-23T23:39:13.044Z,7.22
2022-10-23T23:41:39.766Z,7.45
2022-10-23T23:44:08.226Z,10.57
2022-10-23T23:46:34.995Z,5.82
2022-10-23T23:49:01.717Z,4.88
2022-10-23T23:51:28.516Z,6.97
2022-10-23T23:53:55.440Z,4.35
2022-10-23T23:56:22.311Z,7.53
2022-10-23T23:58:49.246Z,7.13
